Time;durP1;ratioP1;P1;durP2;ratioP2;P2;SDS_P1;SDS_P2;PMS_P1;PMS_P2;Temp;Humidity;BMP_temperature;BMP_pressure;BME280_temperature;BME280_humidity;BME280_pressure;Samples;Min_cycle;Max_cycle;Signal;HPM_P1;HPM_P2
2022/05/09 00:01:44;;;;;;;10.70;7.90;;;;;;;9.47;90.07;98080.06;5009560;28;20631;-62
2022/05/09 00:04:11;;;;;;;10.35;6.78;;;;;;;9.30;90.84;98079.03;5014648;28;20071;-63
2022/05/09 00:06:38;;;;;;;8.75;6.32;;;;;;;9.20;91.37;98075.00;5013417;28;20703;-63
2022/05/09 00:09:05;;;;;;;11.48;7.13;;;;;;;9.14;89.08;98078.59;5008831;28;20038;-62
2022/05/09 00:11:32;;;;;;;10.88;7.43;;;;;;;8.77;92.20;98081.28;5007433;28;20552;-63
2022/05/09 00:14:00;;;;;;;8.43;6.70;;;;;;;8.76;92.55;98087.72;5005835;28;20054;-63
2022/05/09 00:16:33;;;;;;;11.02;7.20;;;;;;;8.70;92.54;98081.34;5008002;28;20408;-61
2022/05/09 00:19:04;;;;;;;10.20;7.47;;;;;;;8.39;93.24;98080.31;5002726;28;20489;-61
2022/05/09 00:21:32;;;;;;;9.85;7.65;;;;;;;8.35;93.57;98081.81;4987841;28;20050;-62
2022/05/09 00:24:01;;;;;;;12.45;7.75;;;;;;;8.40;94.12;98068.50;5005144;28;20656;-62
2022/05/09 00:26:31;;;;;;;11.38;7.15;;;;;;;8.45;94.14;98074.06;5006471;28;20038;-62
2022/05/09 00:28:59;;;;;;;12.57;8.23;;;;;;;8.53;93.97;98068.41;4994245;28;20054;-63
2022/05/09 00:31:26;;;;;;;14.55;8.70;;;;;;;8.66;93.64;98075.53;5007646;28;20046;-63
2022/05/09 00:33:52;;;;;;;12.90;8.35;;;;;;;8.65;92.71;98076.59;5004861;28;20117;-63
2022/05/09 00:36:19;;;;;;;9.57;7.15;;;;;;;8.51;93.38;98075.06;5008043;28;20656;-61
2022/05/09 00:38:45;;;;;;;9.73;7.30;;;;;;;8.58;93.33;98075.81;5005250;28;20049;-62
2022/05/09 00:44:12;;;;;;;11.40;8.48;;;;;;;8.68;92.78;98072.63;5000367;28;20062;-61
2022/05/09 00:46:45;;;;;;;9.73;6.90;;;;;;;8.63;92.33;98076.00;4994793;28;20061;-63
2022/05/09 00:49:23;;;;;;;12.25;7.32;;;;;;;8.52;92.39;98082.91;5007390;28;20056;-62
2022/05/09 00:52:01;;;;;;;11.23;7.05;;;;;;;8.67;92.77;98079.09;4996417;28;20516;-64
2022/05/09 00:54:33;;;;;;;8.82;7.00;;;;;;;8.61;92.12;98074.56;4987777;28;20050;-62
2022/05/09 00:57:23;;;;;;;9.50;7.40;;;;;;;8.63;93.10;98073.31;4995682;28;20073;-63
2022/05/09 00:59:55;;;;;;;10.90;7.78;;;;;;;8.48;93.80;98070.09;4998098;28;20053;-63
2022/05/09 01:02:22;;;;;;;11.07;8.13;;;;;;;8.48;94.08;98073.63;5006228;28;20042;-63
2022/05/09 01:04:54;;;;;;;12.52;9.02;;;;;;;8.42;93.21;98072.63;5007978;28;20046;-63
2022/05/09 01:07:22;;;;;;;11.15;7.63;;;;;;;8.43;93.51;98085.06;5007422;28;20091;-63
2022/05/09 01:09:49;;;;;;;11.60;8.25;;;;;;;8.54;92.80;98074.63;4999949;28;20054;-63
2022/05/09 01:12:22;;;;;;;10.63;8.10;;;;;;;8.45;92.63;98080.25;4988081;28;20042;-62
2022/05/09 01:14:49;;;;;;;12.20;7.88;;;;;;;8.30;93.04;98085.19;4993604;28;20408;-62
2022/05/09 01:17:17;;;;;;;10.07;7.35;;;;;;;8.19;93.05;98078.63;4990139;28;20831;-61
2022/05/09 01:19:44;;;;;;;9.63;6.68;;;;;;;8.30;93.12;98079.78;5004729;28;20057;-61
2022/05/09 01:22:25;;;;;;;10.63;7.50;;;;;;;8.36;93.02;98075.38;4994085;28;20046;-61
2022/05/09 01:24:54;;;;;;;10.60;7.85;;;;;;;8.47;93.27;98080.03;4991981;28;20497;-61
2022/05/09 01:27:21;;;;;;;9.40;7.53;;;;;;;8.41;92.16;98084.44;4996885;28;20038;-61
2022/05/09 01:30:21;;;;;;;10.40;7.43;;;;;;;8.18;92.79;98075.09;5005330;28;20050;-62
2022/05/09 01:32:56;;;;;;;10.52;7.57;;;;;;;8.12;93.63;98088.63;4981309;28;20054;-61
2022/05/09 01:35:28;;;;;;;12.50;8.05;;;;;;;8.16;93.60;98070.97;5006085;28;20054;-61
2022/05/09 01:38:25;;;;;;;12.10;7.57;;;;;;;8.13;94.24;98077.63;4988313;28;20061;-61
2022/05/09 01:40:52;;;;;;;10.23;7.70;;;;;;;8.17;93.42;98080.69;4986682;28;20105;-61
2022/05/09 01:43:34;;;;;;;13.27;7.70;;;;;;;8.13;92.63;98074.91;4987104;28;20046;-62
2022/05/09 01:46:03;;;;;;;9.95;8.13;;;;;;;8.25;93.81;98085.81;5005166;28;20761;-62
2022/05/09 01:51:16;;;;;;;10.73;8.15;;;;;;;8.06;93.46;98076.81;5002618;28;20501;-60
2022/05/09 01:53:49;;;;;;;12.73;8.55;;;;;;;8.09;93.42;98072.88;4994280;28;20049;-61
2022/05/09 01:56:17;;;;;;;10.88;7.85;;;;;;;8.18;93.34;98077.78;5002044;28;20038;-62
2022/05/09 01:58:44;;;;;;;11.45;7.93;;;;;;;8.18;92.79;98077.78;4994212;28;20038;-61
2022/05/09 02:01:10;;;;;;;9.52;7.28;;;;;;;8.18;92.24;98077.78;5002417;28;20045;-62
2022/05/09 02:03:37;;;;;;;10.05;7.90;;;;;;;8.20;92.10;98082.97;5000607;28;20049;-61
2022/05/09 02:06:06;;;;;;;14.60;8.88;;;;;;;8.16;93.02;98082.59;5005269;28;20050;-62
2022/05/09 02:08:33;;;;;;;9.93;7.82;;;;;;;7.94;93.45;98080.25;5006289;28;20050;-63
2022/05/09 02:10:59;;;;;;;11.63;8.05;;;;;;;7.80;93.80;98081.34;5002927;28;20044;-61
2022/05/09 02:13:26;;;;;;;12.57;9.15;;;;;;;7.83;94.47;98080.09;5005673;28;20045;-60
2022/05/09 02:15:53;;;;;;;13.60;9.45;;;;;;;7.86;94.55;98088.59;4994893;28;20056;-61
2022/05/09 02:18:19;;;;;;;14.95;10.15;;;;;;;7.89;94.80;98084.63;4994245;28;20046;-63
2022/05/09 02:20:46;;;;;;;12.75;9.23;;;;;;;7.83;94.80;98089.00;5005602;28;20042;-61
2022/05/09 02:23:14;;;;;;;10.98;8.73;;;;;;;7.77;94.91;98090.69;5004009;28;20497;-61
2022/05/09 02:25:42;;;;;;;14.10;9.88;;;;;;;7.80;95.29;98082.19;5005334;28;20068;-60
2022/05/09 02:28:09;;;;;;;14.18;9.32;;;;;;;7.78;94.69;98086.16;5000870;28;20266;-60
2022/05/09 02:30:38;;;;;;;13.52;8.68;;;;;;;7.76;94.82;98085.53;5001332;28;20449;-62
2022/05/09 02:33:06;;;;;;;13.68;9.80;;;;;;;7.72;95.07;98087.84;5003056;28;20596;-61
2022/05/09 02:35:33;;;;;;;12.70;9.48;;;;;;;7.83;94.56;98089.00;4989725;28;20104;-61
2022/05/09 02:38:00;;;;;;;14.02;9.30;;;;;;;7.76;94.91;98085.53;4991539;28;20046;-62
2022/05/09 02:40:27;;;;;;;16.27;9.77;;;;;;;7.72;94.49;98085.13;5004785;28;20061;-61
2022/05/09 02:42:57;;;;;;;11.63;8.88;;;;;;;7.67;94.42;98087.66;5004596;28;20046;-62
2022/05/09 02:45:25;;;;;;;17.63;10.25;;;;;;;7.63;94.17;98086.44;4984206;28;20050;-61
2022/05/09 02:47:53;;;;;;;12.13;8.85;;;;;;;7.61;94.47;98086.63;4991109;28;20045;-61
2022/05/09 02:50:21;;;;;;;16.77;10.00;;;;;;;7.61;94.38;98080.41;5005141;28;20045;-62
2022/05/09 02:52:49;;;;;;;15.27;9.52;;;;;;;7.62;94.54;98076.66;5004924;28;20030;-61
2022/05/09 02:55:17;;;;;;;14.63;9.20;;;;;;;7.59;93.97;98080.63;5004193;28;20042;-62
2022/05/09 02:57:45;;;;;;;16.27;9.75;;;;;;;7.46;94.53;98088.78;5003076;28;20050;-61
2022/05/09 03:00:22;;;;;;;13.82;9.23;;;;;;;7.33;94.73;98084.28;5007926;28;20045;-61
2022/05/09 03:05:38;;;;;;;13.10;10.30;;;;;;;7.21;95.59;98084.94;4996769;28;20092;-62
2022/05/09 03:08:05;;;;;;;13.95;10.23;;;;;;;7.21;95.46;98086.78;5015169;28;20569;-62
2022/05/09 03:10:32;;;;;;;15.25;10.75;;;;;;;7.27;95.85;98088.66;5003422;28;20061;-60
2022/05/09 03:13:00;;;;;;;13.05;9.93;;;;;;;7.23;95.26;98084.72;4984906;28;20043;-61
2022/05/09 03:15:28;;;;;;;14.57;9.68;;;;;;;7.20;94.93;98082.44;5002388;28;20048;-61
2022/05/09 03:17:55;;;;;;;13.02;9.80;;;;;;;6.94;95.55;98086.88;5003472;28;20034;-61
2022/05/09 03:20:22;;;;;;;16.17;10.90;;;;;;;6.96;96.58;98082.13;5003166;28;20050;-63
2022/05/09 03:22:49;;;;;;;17.00;11.20;;;;;;;7.06;96.59;98077.13;4989007;28;20065;-63
2022/05/09 03:25:16;;;;;;;16.60;11.00;;;;;;;7.15;95.87;98075.84;5005818;28;20053;-63
2022/05/09 03:27:43;;;;;;;14.07;10.38;;;;;;;7.13;95.59;98077.09;4991613;28;20046;-62
2022/05/09 03:30:12;;;;;;;14.15;10.25;;;;;;;7.15;95.70;98083.91;4997551;28;20053;-60
2022/05/09 03:32:39;;;;;;;15.32;10.57;;;;;;;7.13;95.58;98077.94;4996511;28;20493;-61
2022/05/09 03:35:07;;;;;;;12.95;10.05;;;;;;;7.09;95.35;98081.25;4999132;28;20133;-63
2022/05/09 03:37:34;;;;;;;13.65;10.13;;;;;;;7.03;95.76;98083.75;4993492;28;20045;-63
2022/05/09 03:40:01;;;;;;;14.95;11.45;;;;;;;7.01;95.81;98076.94;4985376;28;20105;-62
2022/05/09 03:42:28;;;;;;;17.05;11.13;;;;;;;6.98;95.95;98080.88;4993994;28;20041;-63
2022/05/09 03:44:54;;;;;;;14.95;10.70;;;;;;;6.99;95.47;98087.06;5005888;28;20049;-60
2022/05/09 03:47:21;;;;;;;14.73;11.23;;;;;;;7.03;95.16;98082.91;5001643;28;20786;-62
2022/05/09 03:49:47;;;;;;;14.25;10.00;;;;;;;6.94;95.65;98085.03;5011699;28;20045;-64
2022/05/09 03:52:14;;;;;;;14.90;10.98;;;;;;;6.96;95.28;98087.50;4999929;28;20053;-64
2022/05/09 03:54:40;;;;;;;17.92;11.18;;;;;;;6.94;95.55;98087.72;5008947;28;20049;-61
2022/05/09 03:57:08;;;;;;;17.85;11.30;;;;;;;6.90;94.93;98084.59;5000338;28;20163;-63
2022/05/09 03:59:35;;;;;;;15.38;11.10;;;;;;;6.93;94.77;98094.13;4990495;28;20050;-63
2022/05/09 04:02:02;;;;;;;14.70;11.05;;;;;;;6.86;94.95;98096.81;5004652;28;20042;-63
2022/05/09 04:04:29;;;;;;;16.63;11.70;;;;;;;6.82;94.84;98092.88;5017350;28;20488;-61
2022/05/09 04:06:55;;;;;;;15.57;11.43;;;;;;;6.87;95.31;98087.72;5013741;28;20046;-63
2022/05/09 04:09:22;;;;;;;15.95;10.63;;;;;;;6.89;95.15;98093.72;5001684;28;20851;-64
2022/05/09 04:11:50;;;;;;;17.45;11.00;;;;;;;7.01;94.92;98098.47;4997297;28;20545;-63
2022/05/09 04:16:49;;;;;;;18.30;11.80;;;;;;;6.85;94.71;98089.78;4994655;28;20049;-63
2022/05/09 04:17:03;;;;;;;16.48;11.10;;;;;;;6.75;94.64;98092.91;5005793;28;20738;-62
2022/05/09 04:19:33;;;;;;;16.35;11.43;;;;;;;6.87;94.83;98098.50;5006481;28;20057;-62
2022/05/09 04:22:02;;;;;;;14.93;11.65;;;;;;;6.97;94.85;98097.22;5007835;28;20045;-63
2022/05/09 04:24:33;;;;;;;13.55;10.77;;;;;;;6.94;94.76;98095.78;5007406;28;20084;-62
2022/05/09 04:27:01;;;;;;;17.27;11.20;;;;;;;6.94;94.60;98105.72;5006065;28;20062;-61
2022/05/09 04:29:30;;;;;;;18.20;11.17;;;;;;;7.01;94.65;98103.84;5013302;28;20089;-62
2022/05/09 04:31:57;;;;;;;14.68;10.55;;;;;;;7.05;94.29;98101.56;4991959;28;20045;-63
2022/05/09 04:34:24;;;;;;;14.32;10.55;;;;;;;7.11;94.19;98106.91;5006702;28;20062;-61
2022/05/09 04:36:51;;;;;;;15.63;10.25;;;;;;;7.18;94.08;98098.00;5006612;28;20048;-63
2022/05/09 04:39:20;;;;;;;14.00;10.48;;;;;;;7.25;93.42;98096.94;5017705;28;20062;-62
2022/05/09 04:41:48;;;;;;;15.70;10.05;;;;;;;7.30;93.21;98101.69;5002321;28;20271;-61
2022/05/09 04:44:20;;;;;;;16.98;11.23;;;;;;;7.34;94.59;98110.19;5012450;28;20054;-63
2022/05/09 04:46:46;;;;;;;15.90;11.10;;;;;;;7.33;93.88;98108.53;5002758;28;20054;-62
2022/05/09 04:49:13;;;;;;;17.50;12.40;;;;;;;7.34;94.14;98105.59;5014587;28;20077;-63
2022/05/09 04:51:40;;;;;;;16.17;11.52;;;;;;;7.36;94.31;98108.09;4997871;28;20042;-62
2022/05/09 04:54:06;;;;;;;17.15;11.90;;;;;;;7.29;95.12;98108.09;5010268;28;20044;-61
2022/05/09 04:56:33;;;;;;;17.67;12.48;;;;;;;7.41;95.14;98111.81;5001290;28;20050;-62
2022/05/09 04:59:00;;;;;;;15.93;11.73;;;;;;;7.57;95.41;98112.38;5005512;28;20053;-62
2022/05/09 05:01:26;;;;;;;16.60;12.43;;;;;;;7.68;94.62;98116.25;5002347;28;20762;-61
2022/05/09 05:03:53;;;;;;;17.15;12.85;;;;;;;7.80;94.59;98111.00;5005872;28;20037;-63
2022/05/09 05:06:20;;;;;;;16.60;12.55;;;;;;;7.92;94.37;98119.22;5013929;28;20111;-61
2022/05/09 05:08:46;;;;;;;18.30;12.60;;;;;;;8.01;93.81;98117.97;5007810;28;20107;-62
2022/05/09 05:11:13;;;;;;;16.38;11.75;;;;;;;8.10;94.09;98115.00;5024050;28;20711;-62
2022/05/09 05:13:39;;;;;;;21.90;13.13;;;;;;;8.24;94.26;98118.41;5009887;28;20045;-62
2022/05/09 05:16:06;;;;;;;19.17;14.23;;;;;;;8.28;94.05;98117.78;5004686;28;20054;-62
2022/05/09 05:18:34;;;;;;;18.23;12.35;;;;;;;8.34;94.25;98121.47;5006131;28;20327;-62
2022/05/09 05:21:12;;;;;;;18.63;14.38;;;;;;;8.59;93.75;98128.78;4987254;28;20439;-60
2022/05/09 05:23:39;;;;;;;16.63;13.70;;;;;;;8.84;93.25;98130.63;5002912;28;20046;-62
2022/05/09 05:26:07;;;;;;;21.30;13.27;;;;;;;9.02;92.75;98137.09;4991585;28;20041;-61
2022/05/09 05:28:33;;;;;;;20.35;12.80;;;;;;;9.08;93.95;98128.13;5008610;28;20109;-62
2022/05/09 05:31:18;;;;;;;20.55;12.32;;;;;;;9.23;93.06;98131.31;5011689;28;20049;-61
2022/05/09 05:33:46;;;;;;;16.92;13.13;;;;;;;9.34;93.05;98124.31;5004993;28;20046;-64
2022/05/09 05:36:14;;;;;;;17.05;13.63;;;;;;;9.52;93.16;98133.47;5003510;28;20068;-62
2022/05/09 05:38:41;;;;;;;16.80;11.93;;;;;;;9.61;93.53;98128.56;5015200;28;20102;-62
2022/05/09 05:41:08;;;;;;;18.52;13.38;;;;;;;9.77;93.65;98135.25;5020203;28;20582;-62
2022/05/09 05:43:34;;;;;;;18.48;13.05;;;;;;;9.95;93.32;98136.28;5005516;28;20038;-62
2022/05/09 05:46:01;;;;;;;18.40;14.73;;;;;;;10.17;93.14;98144.69;5003608;28;20057;-63
2022/05/09 05:48:27;;;;;;;19.65;13.25;;;;;;;10.44;91.57;98144.34;5011134;28;20809;-63
2022/05/09 05:50:54;;;;;;;18.60;13.02;;;;;;;10.63;90.67;98146.97;4999467;28;20041;-62
2022/05/09 05:53:20;;;;;;;15.95;12.52;;;;;;;10.84;89.48;98147.47;5005447;28;20056;-62
2022/05/09 05:55:47;;;;;;;16.30;13.07;;;;;;;10.98;88.51;98150.78;5003416;28;20660;-63
2022/05/09 05:58:13;;;;;;;18.58;12.43;;;;;;;11.09;88.22;98141.00;5006706;28;20057;-63
2022/05/09 06:00:40;;;;;;;19.70;12.40;;;;;;;11.19;87.93;98144.75;5003879;28;20572;-63
2022/05/09 06:03:08;;;;;;;17.40;12.57;;;;;;;11.34;87.31;98154.28;4998703;28;20128;-63
2022/05/09 06:05:35;;;;;;;15.10;11.10;;;;;;;11.50;86.04;98149.19;5019937;28;20049;-63
2022/05/09 06:08:02;;;;;;;16.38;11.77;;;;;;;11.62;85.42;98151.88;5001352;28;20050;-63
2022/05/09 06:10:30;;;;;;;15.82;11.77;;;;;;;11.75;85.23;98162.44;4999032;28;20054;-62
2022/05/09 06:12:57;;;;;;;16.48;11.52;;;;;;;11.83;84.72;98158.53;5000557;28;20049;-62
2022/05/09 06:15:28;;;;;;;13.63;10.95;;;;;;;11.88;84.87;98155.09;4998316;28;20049;-62
2022/05/09 06:17:57;;;;;;;13.65;10.23;;;;;;;11.92;84.55;98159.81;5001294;28;20057;-62
2022/05/09 06:20:26;;;;;;;15.68;12.05;;;;;;;12.03;84.58;98154.56;5005348;28;20046;-62
2022/05/09 06:22:56;;;;;;;13.88;11.75;;;;;;;12.19;84.14;98161.13;4991723;28;20104;-61
2022/05/09 06:25:23;;;;;;;16.35;11.63;;;;;;;12.28;83.46;98161.59;4993745;28;20043;-61
2022/05/09 06:27:50;;;;;;;14.27;11.27;;;;;;;12.32;83.18;98157.31;5003381;28;20045;-62
2022/05/09 06:30:19;;;;;;;14.77;10.63;;;;;;;12.44;82.96;98159.97;4997003;28;20054;-61
2022/05/09 06:32:46;;;;;;;13.32;10.95;;;;;;;12.53;82.48;98161.19;4992645;28;20042;-62
2022/05/09 06:35:15;;;;;;;13.85;10.90;;;;;;;12.61;82.04;98163.50;4999037;28;20046;-63
2022/05/09 06:37:42;;;;;;;13.65;11.23;;;;;;;12.74;82.69;98164.25;5005592;28;20119;-61
2022/05/09 06:40:10;;;;;;;12.68;10.30;;;;;;;12.80;81.67;98160.59;5005663;28;20354;-63
2022/05/09 06:42:36;;;;;;;14.13;10.82;;;;;;;12.87;80.99;98165.84;4990545;28;20056;-63
2022/05/09 06:45:04;;;;;;;15.38;11.20;;;;;;;12.95;81.03;98167.31;5001023;28;20084;-63
2022/05/09 06:47:31;;;;;;;13.75;10.75;;;;;;;12.96;80.46;98156.19;5001558;28;20092;-63
2022/05/09 06:50:02;;;;;;;13.30;9.38;;;;;;;13.06;79.87;98162.88;5004590;28;20467;-62
2022/05/09 06:52:29;;;;;;;13.90;10.65;;;;;;;13.13;79.95;98169.75;5000013;28;20126;-61
2022/05/09 06:54:56;;;;;;;13.35;10.13;;;;;;;13.25;79.24;98166.97;4994405;28;20054;-63
2022/05/09 06:57:23;;;;;;;11.68;9.85;;;;;;;13.41;79.42;98167.16;4995116;28;20516;-61
2022/05/09 06:59:49;;;;;;;11.13;9.32;;;;;;;13.48;78.99;98159.69;5000721;28;20165;-62
2022/05/09 07:02:16;;;;;;;11.10;9.90;;;;;;;13.58;78.05;98163.59;4993760;28;20355;-63
2022/05/09 07:04:42;;;;;;;10.90;9.13;;;;;;;13.67;78.04;98164.81;5008000;28;20076;-62
2022/05/09 07:07:09;;;;;;;11.73;8.88;;;;;;;13.82;76.68;98158.72;5024855;28;20037;-63
2022/05/09 07:09:37;;;;;;;12.18;10.20;;;;;;;13.86;77.08;98159.06;5018560;28;20049;-62
2022/05/09 07:12:04;;;;;;;14.85;8.95;;;;;;;13.94;75.88;98165.97;4999933;28;20054;-63
2022/05/09 07:14:33;;;;;;;10.45;8.30;;;;;;;14.10;74.88;98166.94;4988012;28;20437;-63
2022/05/09 07:16:59;;;;;;;10.15;8.20;;;;;;;14.25;74.58;98161.66;4990017;28;20041;-62
2022/05/09 07:19:26;;;;;;;10.18;8.35;;;;;;;14.33;74.15;98162.31;4991693;28;20038;-62
2022/05/09 07:21:53;;;;;;;11.57;8.80;;;;;;;14.46;73.99;98166.50;5016586;28;20092;-61
2022/05/09 07:24:19;;;;;;;11.13;8.73;;;;;;;14.51;73.61;98164.66;5006456;28;20128;-52
2022/05/09 07:26:46;;;;;;;9.80;7.60;;;;;;;14.64;72.63;98165.31;5010785;28;20420;-51
2022/05/09 07:29:13;;;;;;;11.07;8.70;;;;;;;14.66;71.37;98165.84;5012660;28;20436;-53
2022/05/09 07:31:39;;;;;;;8.65;7.75;;;;;;;14.75;70.82;98166.22;5012885;28;20397;-49
2022/05/09 07:34:06;;;;;;;8.88;7.20;;;;;;;14.86;70.28;98170.72;5003211;28;20505;-56
2022/05/09 07:36:33;;;;;;;8.95;7.10;;;;;;;15.05;70.86;98165.66;5014653;28;20044;-55
2022/05/09 07:39:01;;;;;;;11.82;8.15;;;;;;;15.16;69.09;98172.03;5023462;28;20140;-51
2022/05/09 07:41:27;;;;;;;10.10;8.35;;;;;;;15.27;70.12;98174.81;5016791;28;20048;-49
2022/05/09 07:43:58;;;;;;;11.33;7.77;;;;;;;15.19;69.09;98168.75;5002993;28;20046;-49
2022/05/09 07:46:24;;;;;;;9.93;7.68;;;;;;;15.36;69.49;98175.94;5010155;28;20432;-54
2022/05/09 07:49:12;;;;;;;13.75;8.05;;;;;;;15.47;68.76;98172.19;5005656;28;20054;-61
2022/05/09 07:51:38;;;;;;;11.07;6.88;;;;;;;15.54;68.31;98171.13;5017996;28;20049;-62
2022/05/09 07:54:06;;;;;;;9.90;7.93;;;;;;;15.41;68.50;98173.25;5004239;28;20049;-62
2022/05/09 07:56:39;;;;;;;13.52;8.80;;;;;;;15.28;69.71;98173.72;5014821;28;20068;-61
2022/05/09 07:59:07;;;;;;;11.65;9.07;;;;;;;15.47;69.18;98174.09;5014842;28;20052;-62
2022/05/09 08:01:34;;;;;;;11.07;8.45;;;;;;;15.53;69.05;98174.94;5010525;28;20049;-61
2022/05/09 08:04:04;;;;;;;11.98;9.32;;;;;;;15.64;69.46;98176.66;5012450;28;20042;-61
2022/05/09 08:06:31;;;;;;;14.48;9.15;;;;;;;15.64;68.85;98178.56;5013947;28;20572;-62
2022/05/09 08:08:58;;;;;;;12.57;8.88;;;;;;;15.65;69.35;98181.03;5004599;28;20061;-62
2022/05/09 08:11:25;;;;;;;11.90;9.45;;;;;;;15.77;68.18;98172.59;5008063;28;20042;-62
2022/05/09 08:13:51;;;;;;;12.93;9.73;;;;;;;15.84;68.45;98184.13;5002268;28;20066;-60
2022/05/09 08:16:20;;;;;;;18.23;9.75;;;;;;;15.87;68.62;98171.84;5008061;28;20537;-60
2022/05/09 08:18:48;;;;;;;12.07;9.50;;;;;;;15.97;68.37;98174.66;4999755;28;20050;-62
2022/05/09 08:21:14;;;;;;;13.32;10.15;;;;;;;15.90;67.68;98184.13;5007205;28;20056;-60
2022/05/09 08:23:45;;;;;;;12.02;9.15;;;;;;;15.99;67.84;98177.09;5006142;28;20544;-60
2022/05/09 08:26:12;;;;;;;11.10;8.32;;;;;;;16.13;67.87;98177.41;5009947;28;20121;-61
2022/05/09 08:28:39;;;;;;;12.68;9.98;;;;;;;16.22;68.04;98184.00;5006669;28;20114;-62
2022/05/09 08:31:06;;;;;;;15.07;10.38;;;;;;;16.37;67.12;98185.13;4990493;28;20050;-61
2022/05/09 08:33:33;;;;;;;11.98;9.32;;;;;;;16.38;65.78;98184.03;5006618;28;20148;-61
2022/05/09 08:36:02;;;;;;;12.20;8.63;;;;;;;16.50;65.50;98178.31;5007235;28;20046;-62
2022/05/09 08:38:29;;;;;;;12.98;9.35;;;;;;;16.51;66.16;98178.03;4993546;28;20144;-62
2022/05/09 08:41:07;;;;;;;13.07;9.05;;;;;;;16.60;65.80;98177.50;5001740;28;20459;-61
2022/05/09 08:43:51;;;;;;;14.02;9.48;;;;;;;16.83;65.20;98170.69;5008912;28;20303;-62
2022/05/09 08:46:32;;;;;;;14.00;10.32;;;;;;;16.96;65.37;98174.81;5001398;28;20160;-62
2022/05/09 08:49:31;;;;;;;15.60;8.43;;;;;;;17.12;65.38;98178.38;5005297;28;20069;-61
2022/05/09 08:52:04;;;;;;;11.32;8.63;;;;;;;17.02;64.03;98173.69;5003455;28;20042;-62
2022/05/09 08:54:30;;;;;;;12.32;9.85;;;;;;;17.10;65.56;98172.34;5010651;28;20064;-61
2022/05/09 08:57:07;;;;;;;11.02;9.25;;;;;;;17.14;65.27;98178.91;5016787;28;20755;-62
2022/05/09 08:59:39;;;;;;;10.38;8.48;;;;;;;17.23;64.38;98179.16;5016183;28;20057;-61
2022/05/09 09:02:18;;;;;;;11.30;9.50;;;;;;;17.40;64.56;98176.13;5013240;28;20037;-61
2022/05/09 09:04:52;;;;;;;11.23;8.63;;;;;;;17.48;63.32;98179.41;5014139;28;20052;-61
2022/05/09 09:07:43;;;;;;;12.68;9.38;;;;;;;17.58;63.48;98178.56;5012350;28;20041;-62
2022/05/09 09:10:16;;;;;;;10.63;8.10;;;;;;;17.68;61.90;98178.50;5007041;28;20045;-61
2022/05/09 09:13:22;;;;;;;12.15;8.50;;;;;;;17.67;62.55;98182.34;4987153;28;20054;-62
2022/05/09 09:16:35;;;;;;;11.70;7.53;;;;;;;17.73;62.29;98183.97;5005003;28;20050;-62
2022/05/09 09:19:11;;;;;;;9.55;7.50;;;;;;;17.84;61.61;98172.97;4998584;28;20425;-60
2022/05/09 09:22:05;;;;;;;9.65;7.40;;;;;;;17.97;60.54;98183.34;5005932;28;20046;-62
2022/05/09 09:24:37;;;;;;;10.63;8.70;;;;;;;17.98;60.17;98175.94;5006914;28;20050;-61
2022/05/09 09:27:10;;;;;;;13.85;6.68;;;;;;;18.06;59.04;98180.84;5008814;28;20552;-64
2022/05/09 09:29:51;;;;;;;6.70;5.50;;;;;;;18.24;58.04;98179.38;4996531;28;20073;-60
2022/05/09 09:32:20;;;;;;;11.63;6.47;;;;;;;18.32;57.69;98180.72;4999238;28;20045;-60
2022/05/09 09:34:57;;;;;;;9.35;6.63;;;;;;;18.11;58.32;98185.50;5008865;28;20034;-60
2022/05/09 09:38:05;;;;;;;9.90;6.93;;;;;;;17.96;59.91;98183.59;5017779;28;20760;-62
2022/05/09 09:40:33;;;;;;;11.88;6.85;;;;;;;18.23;59.55;98168.69;4987368;28;20520;-60
2022/05/09 09:42:59;;;;;;;7.32;6.30;;;;;;;18.36;58.97;98180.97;4989517;28;20047;-59
2022/05/09 09:45:35;;;;;;;9.75;6.32;;;;;;;18.44;57.49;98175.72;4989972;28;20123;-60
2022/05/09 09:48:12;;;;;;;9.52;5.85;;;;;;;18.50;57.11;98178.44;4992404;28;20586;-61
2022/05/09 09:51:01;;;;;;;10.02;6.05;;;;;;;18.69;56.48;98178.56;4988291;28;20048;-62
2022/05/09 09:53:57;;;;;;;10.93;7.65;;;;;;;18.67;56.74;98178.84;4987440;28;20395;-62
2022/05/09 09:56:24;;;;;;;9.77;7.15;;;;;;;18.55;57.47;98176.47;4988459;28;20103;-62
2022/05/09 09:58:59;;;;;;;10.18;6.38;;;;;;;18.67;56.29;98183.50;4987418;28;20037;-64
2022/05/09 10:01:33;;;;;;;8.85;6.18;;;;;;;18.64;55.31;98184.09;4986911;28;20050;-65
2022/05/09 10:04:09;;;;;;;8.98;5.80;;;;;;;18.81;53.88;98181.78;4990101;28;20050;-63
2022/05/09 10:07:12;;;;;;;9.18;6.25;;;;;;;18.58;56.02;98173.13;4980208;28;20048;-64
2022/05/09 10:09:42;;;;;;;9.75;5.78;;;;;;;18.86;55.15;98183.63;4982376;28;20046;-63
2022/05/09 10:12:18;;;;;;;8.77;5.78;;;;;;;18.91;54.42;98175.34;4987561;28;20045;-63
2022/05/09 10:14:45;;;;;;;10.77;5.47;;;;;;;19.02;55.13;98169.78;4981188;28;20421;-64
2022/05/09 10:17:20;;;;;;;10.75;6.78;;;;;;;18.91;54.79;98166.31;4996590;28;20391;-61
2022/05/09 10:19:48;;;;;;;12.00;6.70;;;;;;;18.99;55.97;98176.69;4990459;28;20038;-64
2022/05/09 10:25:22;;;;;;;6.35;5.38;;;;;;;19.40;52.29;98174.66;4988061;28;20502;-61
2022/05/09 10:28:22;;;;;;;8.38;5.65;;;;;;;19.71;53.15;98175.16;4991967;28;20078;-64
2022/05/09 10:30:54;;;;;;;10.90;5.65;;;;;;;19.91;50.85;98172.44;4951140;28;20065;-63
2022/05/09 10:33:38;;;;;;;9.38;5.40;;;;;;;19.86;50.78;98159.59;4997512;28;20042;-65
2022/05/09 10:36:10;;;;;;;11.65;6.47;;;;;;;19.67;52.87;98162.28;5007815;28;20079;-63
2022/05/09 10:38:48;;;;;;;7.47;5.97;;;;;;;19.34;52.68;98158.25;5013677;28;20045;-63
2022/05/09 10:41:27;;;;;;;8.70;5.43;;;;;;;19.77;53.05;98159.44;5005994;28;20049;-64
2022/05/09 10:43:59;;;;;;;6.50;5.03;;;;;;;19.73;52.66;98156.47;4989095;28;20053;-63
2022/05/09 10:46:37;;;;;;;7.07;4.57;;;;;;;19.79;49.75;98157.19;5008826;28;20042;-62
2022/05/09 10:49:44;;;;;;;6.68;4.68;;;;;;;19.92;50.07;98152.09;5021491;28;20049;-61
2022/05/09 10:52:29;;;;;;;7.20;5.32;;;;;;;19.96;50.31;98142.16;4962426;28;20054;-62
2022/05/09 10:55:19;;;;;;;7.55;5.15;;;;;;;20.20;50.20;98136.63;5003243;28;20065;-62
2022/05/09 10:58:02;;;;;;;6.53;5.33;;;;;;;20.64;50.19;98140.09;5022333;28;20605;-62
2022/05/09 11:00:32;;;;;;;7.75;5.50;;;;;;;20.55;49.72;98141.91;5015034;28;20292;-62
2022/05/09 11:03:14;;;;;;;;;;;;;;;20.19;50.04;98134.19;5011046;28;20112;-65
2022/05/09 11:05:56;;;;;;;8.57;5.35;;;;;;;20.26;49.81;98132.69;5013804;28;19932;-63
2022/05/09 11:08:39;;;;;;;7.07;5.00;;;;;;;20.52;49.75;98126.81;5002618;28;20057;-64
2022/05/09 11:11:18;;;;;;;7.65;5.22;;;;;;;20.61;47.99;98137.97;5013445;28;20051;-63
2022/05/09 11:13:50;;;;;;;6.47;4.68;;;;;;;20.58;48.62;98134.97;5029622;28;20496;-64
2022/05/09 11:16:52;;;;;;;8.60;5.68;;;;;;;20.53;48.71;98122.94;5023550;28;20037;-62
2022/05/09 11:19:38;;;;;;;8.77;4.90;;;;;;;20.33;48.75;98126.81;4963266;28;20050;-61
2022/05/09 11:22:26;;;;;;;7.00;4.40;;;;;;;21.11;47.78;98116.53;5000784;28;20358;-62
2022/05/09 11:25:18;;;;;;;7.57;4.70;;;;;;;21.44;47.75;98113.66;5012327;28;20045;-62
2022/05/09 11:28:00;;;;;;;7.20;5.80;;;;;;;21.39;47.98;98119.28;5005688;28;20475;-61
2022/05/09 11:30:38;;;;;;;;;;;;;;;21.44;48.69;98108.16;5024693;28;20080;-63
2022/05/09 11:33:23;;;;;;;7.75;5.78;;;;;;;21.49;48.86;98104.50;5007127;28;19976;-63
2022/05/09 11:35:56;;;;;;;6.95;5.55;;;;;;;21.40;48.45;98104.38;5016856;28;20524;-62
2022/05/09 11:38:40;;;;;;;7.82;5.40;;;;;;;21.16;49.06;98119.16;5027290;28;20049;-62
2022/05/09 11:41:22;;;;;;;8.13;5.60;;;;;;;21.13;48.62;98109.59;5009106;28;20046;-63
2022/05/09 11:43:52;;;;;;;10.70;5.50;;;;;;;21.13;47.94;98106.84;5017417;28;20091;-64
2022/05/09 11:46:40;;;;;;;8.05;5.10;;;;;;;21.28;47.13;98104.91;5012901;28;20084;-64
2022/05/09 11:49:35;;;;;;;7.60;5.15;;;;;;;21.44;46.61;98100.72;5012402;28;20582;-62
2022/05/09 11:52:15;;;;;;;7.68;5.22;;;;;;;21.43;46.35;98098.28;5025397;28;20128;-62
2022/05/09 11:54:47;;;;;;;7.65;5.40;;;;;;;21.55;46.29;98100.50;5007785;28;20127;-65
2022/05/09 11:57:25;;;;;;;9.13;5.63;;;;;;;22.07;46.62;98096.66;5010451;28;20104;-64
2022/05/09 11:59:56;;;;;;;10.38;5.60;;;;;;;22.46;44.72;98094.41;5018086;28;20560;-63
2022/05/09 12:02:42;;;;;;;6.93;5.50;;;;;;;22.80;44.89;98094.97;5017442;28;20050;-62